Time;durP1;ratioP1;P1;durP2;ratioP2;P2;SDS_P1;SDS_P2;PMS_P1;PMS_P2;Temp;Humidity;BMP_temperature;BMP_pressure;BME280_temperature;BME280_humidity;BME280_pressure;Samples;Min_cycle;Max_cycle;Signal;HPM_P1;HPM_P2
2023/04/26 00:02:01;;;;;;;7.90;3.20;;;;;;;6.59;69.18;98065.77;105751;1262;99173;-68
2023/04/26 00:04:27;;;;;;;8.00;3.00;;;;;;;6.50;68.92;98065.48;105116;1257;98361;-68
2023/04/26 00:06:56;;;;;;;11.00;3.10;;;;;;;6.46;68.74;98066.82;105116;1259;97935;-68
2023/04/26 00:09:23;;;;;;;7.50;2.80;;;;;;;6.38;68.18;98066.85;105188;1253;99081;-68
2023/04/26 00:11:50;;;;;;;8.20;3.00;;;;;;;6.29;67.96;98067.82;105100;1258;97935;-68
2023/04/26 00:14:17;;;;;;;5.80;3.00;;;;;;;6.21;67.91;98064.36;105192;1256;99653;-68
2023/04/26 00:16:44;;;;;;;6.80;2.90;;;;;;;6.16;67.58;98064.08;105074;1259;98005;-71
2023/04/26 00:19:12;;;;;;;7.20;2.80;;;;;;;6.11;67.92;98066.29;105105;1258;98138;-71
2023/04/26 00:21:39;;;;;;;11.30;4.20;;;;;;;6.05;68.33;98062.09;105151;1257;97973;-68
2023/04/26 00:24:07;;;;;;;8.80;3.10;;;;;;;5.99;68.08;98064.61;105082;1259;97900;-69
2023/04/26 00:26:35;;;;;;;4.90;2.40;;;;;;;5.97;67.95;98069.20;105135;1267;98555;-69
2023/04/26 00:29:05;;;;;;;8.40;2.40;;;;;;;5.96;67.75;98070.41;105057;1267;97997;-69
2023/04/26 00:31:32;;;;;;;9.30;3.00;;;;;;;5.97;67.48;98072.48;105108;1259;97931;-69
2023/04/26 00:33:59;;;;;;;5.20;2.30;;;;;;;5.97;67.62;98073.52;105223;1257;97963;-72
2023/04/26 00:36:31;;;;;;;8.00;2.80;;;;;;;5.98;67.48;98072.56;105196;1260;98321;-70
2023/04/26 00:39:06;;;;;;;6.10;2.50;;;;;;;5.99;67.46;98068.90;104588;1265;98054;-69
2023/04/26 00:41:40;;;;;;;6.40;3.00;;;;;;;6.00;67.29;98072.32;104527;1259;106729;-70
2023/04/26 00:44:14;;;;;;;6.40;2.50;;;;;;;5.98;67.39;98077.14;104395;1259;97974;-69
2023/04/26 00:46:52;;;;;;;5.80;2.00;;;;;;;5.95;66.82;98083.16;104638;1274;98055;-69
2023/04/26 00:49:25;;;;;;;8.00;2.20;;;;;;;5.92;66.50;98085.08;104525;1264;111994;-69
2023/04/26 00:52:00;;;;;;;9.00;2.20;;;;;;;5.88;66.48;98085.55;104500;1265;98172;-68
2023/04/26 00:54:30;;;;;;;5.10;2.40;;;;;;;5.82;66.55;98089.30;104531;1265;108682;-69
2023/04/26 00:57:02;;;;;;;7.30;2.20;;;;;;;5.74;66.43;98092.52;104785;1265;97916;-68
2023/04/26 00:59:29;;;;;;;6.40;2.60;;;;;;;5.65;66.46;98095.48;105033;1259;98031;-68
2023/04/26 01:01:56;;;;;;;9.20;3.30;;;;;;;5.56;66.50;98098.57;105070;1267;97814;-70
2023/04/26 01:04:26;;;;;;;6.00;2.60;;;;;;;5.51;66.63;98102.55;105118;1259;97957;-69
2023/04/26 01:06:54;;;;;;;5.60;2.50;;;;;;;5.44;66.81;98103.45;105044;1257;108726;-68
2023/04/26 01:09:23;;;;;;;6.90;2.90;;;;;;;5.37;66.89;98105.66;105052;1259;99208;-68
2023/04/26 01:11:51;;;;;;;5.70;2.50;;;;;;;5.30;66.99;98101.80;105018;1253;97970;-69
2023/04/26 01:14:20;;;;;;;8.20;2.70;;;;;;;5.24;67.08;98103.55;105095;1259;112401;-69
2023/04/26 01:16:48;;;;;;;6.30;2.40;;;;;;;5.19;67.30;98097.96;104722;1263;98193;-70
2023/04/26 01:19:16;;;;;;;7.90;2.40;;;;;;;5.14;67.52;98100.31;105199;1267;108509;-67
2023/04/26 01:21:43;;;;;;;5.40;2.70;;;;;;;5.10;67.51;98103.29;105145;1253;98125;-67
2023/04/26 01:24:12;;;;;;;8.90;3.00;;;;;;;5.03;67.54;98099.70;105092;1265;97933;-67
2023/04/26 01:26:44;;;;;;;7.80;3.50;;;;;;;4.97;68.00;98105.30;105056;1265;110992;-68
2023/04/26 01:29:19;;;;;;;9.80;3.20;;;;;;;4.90;68.70;98103.54;104967;1263;98339;-67
2023/04/26 01:31:48;;;;;;;8.30;3.30;;;;;;;4.87;68.65;98103.52;105169;1259;108669;-67
2023/04/26 01:34:15;;;;;;;8.10;2.90;;;;;;;4.84;68.73;98107.08;105155;1261;99255;-67
2023/04/26 01:36:42;;;;;;;6.00;2.80;;;;;;;4.82;68.88;98110.80;105172;1253;97917;-69
2023/04/26 01:39:09;;;;;;;9.50;3.20;;;;;;;4.82;69.33;98114.33;105170;1267;97903;-68
2023/04/26 01:41:36;;;;;;;7.90;2.90;;;;;;;4.77;69.60;98116.56;105191;1259;97918;-69
2023/04/26 01:44:04;;;;;;;7.90;3.20;;;;;;;4.76;69.94;98121.73;105130;1267;97883;-67
2023/04/26 01:46:31;;;;;;;8.10;3.30;;;;;;;4.72;70.24;98120.69;105051;1256;97972;-68
2023/04/26 01:48:58;;;;;;;8.50;4.00;;;;;;;4.66;70.61;98120.81;105131;1268;97900;-67
2023/04/26 01:51:25;;;;;;;8.70;3.80;;;;;;;4.60;71.00;98126.98;105104;1253;99219;-67
2023/04/26 01:53:53;;;;;;;10.40;4.00;;;;;;;4.54;72.14;98125.15;104999;1259;97896;-67
2023/04/26 01:56:23;;;;;;;8.30;3.90;;;;;;;4.48;71.68;98125.23;105078;1253;97988;-67
2023/04/26 01:58:50;;;;;;;9.40;4.20;;;;;;;4.43;72.34;98123.80;104981;1260;98576;-68
2023/04/26 02:01:18;;;;;;;9.50;4.30;;;;;;;4.38;72.16;98122.66;105124;1266;97813;-67
2023/04/26 02:03:45;;;;;;;10.00;4.50;;;;;;;4.33;72.14;98123.13;104840;1264;98007;-68
2023/04/26 02:06:12;;;;;;;9.00;5.20;;;;;;;4.28;72.26;98125.19;105139;1259;99199;-68
2023/04/26 02:08:38;;;;;;;7.90;4.70;;;;;;;4.21;72.71;98130.23;105004;1268;99304;-68
2023/04/26 02:11:06;;;;;;;11.90;5.00;;;;;;;4.17;72.67;98132.66;105100;1259;98083;-68
2023/04/26 02:13:33;;;;;;;7.80;4.00;;;;;;;4.10;73.44;98136.24;105184;1259;97884;-69
2023/04/26 02:16:00;;;;;;;9.80;3.80;;;;;;;4.05;72.78;98135.73;104958;1266;97986;-70
2023/04/26 02:18:28;;;;;;;8.70;4.90;;;;;;;4.00;73.83;98134.96;105141;1266;99218;-68
2023/04/26 02:20:55;;;;;;;10.00;5.20;;;;;;;3.96;74.23;98140.04;105150;1276;98402;-67
2023/04/26 02:23:23;;;;;;;12.50;4.60;;;;;;;3.93;74.24;98135.30;105094;1259;99195;-68
2023/04/26 02:25:50;;;;;;;10.50;4.60;;;;;;;3.92;74.47;98139.63;105162;1266;98471;-67
2023/04/26 02:28:17;;;;;;;11.20;4.10;;;;;;;3.91;74.54;98140.34;105166;1258;97971;-67
2023/04/26 02:30:44;;;;;;;9.10;4.10;;;;;;;3.90;74.89;98141.05;105083;1267;97889;-67
2023/04/26 02:33:11;;;;;;;9.40;3.90;;;;;;;3.87;75.17;98139.23;105037;1258;97876;-67
2023/04/26 02:35:38;;;;;;;9.80;4.40;;;;;;;3.84;75.06;98135.02;105108;1256;98005;-69
2023/04/26 02:38:05;;;;;;;11.10;4.70;;;;;;;3.78;75.16;98136.42;105013;1261;97874;-70
2023/04/26 02:40:32;;;;;;;9.00;3.90;;;;;;;3.72;75.47;98137.00;105164;1267;97876;-68
2023/04/26 02:42:59;;;;;;;9.70;4.00;;;;;;;3.64;75.99;98131.96;105146;1266;98408;-69
2023/04/26 02:45:26;;;;;;;8.20;4.20;;;;;;;3.59;75.65;98134.21;105146;1259;97900;-69
2023/04/26 02:47:54;;;;;;;9.40;3.90;;;;;;;3.55;75.81;98136.56;105199;1257;98576;-68
2023/04/26 02:50:21;;;;;;;7.90;4.00;;;;;;;3.49;75.85;98135.30;105182;1265;99263;-68
2023/04/26 02:52:48;;;;;;;14.10;4.70;;;;;;;3.43;76.11;98138.31;105175;1261;97918;-68
2023/04/26 02:55:16;;;;;;;8.20;4.10;;;;;;;3.37;75.85;98137.16;105068;1257;97950;-68
2023/04/26 02:57:43;;;;;;;11.40;4.00;;;;;;;3.31;75.96;98139.57;105129;1267;97836;-69
2023/04/26 03:00:12;;;;;;;8.70;4.70;;;;;;;3.27;75.99;98140.02;105125;1259;97912;-69
2023/04/26 03:02:40;;;;;;;13.50;6.30;;;;;;;3.24;76.08;98143.11;104952;1270;111845;-69
2023/04/26 03:05:08;;;;;;;13.80;6.90;;;;;;;3.22;76.06;98144.52;104943;1261;98183;-70
2023/04/26 03:07:36;;;;;;;12.60;6.00;;;;;;;3.22;76.11;98148.58;105115;1276;108814;-69
2023/04/26 03:10:04;;;;;;;10.60;5.50;;;;;;;3.23;76.12;98149.40;105146;1267;99308;-68
2023/04/26 03:12:31;;;;;;;13.00;5.60;;;;;;;3.24;76.29;98151.67;105086;1262;98316;-67
2023/04/26 03:14:58;;;;;;;9.20;5.30;;;;;;;3.25;76.17;98149.88;105067;1261;111944;-68
2023/04/26 03:17:25;;;;;;;8.80;5.30;;;;;;;3.23;76.06;98155.67;105103;1259;98786;-67
2023/04/26 03:19:53;;;;;;;11.40;5.30;;;;;;;3.19;76.25;98158.52;104965;1260;99211;-68
2023/04/26 03:22:20;;;;;;;7.30;4.20;;;;;;;3.16;76.06;98163.35;105137;1257;97897;-69
2023/04/26 03:24:47;;;;;;;11.40;5.10;;;;;;;3.13;76.21;98162.02;105204;1266;99209;-69
2023/04/26 03:27:20;;;;;;;11.10;4.90;;;;;;;3.09;76.11;98163.16;105094;1259;97954;-69
2023/04/26 03:29:57;;;;;;;11.00;5.30;;;;;;;3.06;75.96;98168.91;105109;1259;99478;-68
2023/04/26 03:32:24;;;;;;;13.50;6.40;;;;;;;3.03;76.05;98170.98;105140;1259;108481;-70
2023/04/26 03:34:51;;;;;;;14.70;6.30;;;;;;;2.97;76.43;98174.78;105120;1265;98569;-70
2023/04/26 03:37:19;;;;;;;14.20;6.30;;;;;;;2.93;76.39;98178.48;105114;1267;99208;-68
2023/04/26 03:39:46;;;;;;;12.50;5.40;;;;;;;2.89;76.41;98185.26;105177;1256;97876;-68
2023/04/26 03:42:13;;;;;;;14.80;5.00;;;;;;;2.85;76.53;98187.91;105103;1267;97997;-67
2023/04/26 03:44:40;;;;;;;10.60;3.80;;;;;;;2.81;76.98;98187.02;105105;1259;98018;-67
2023/04/26 03:47:07;;;;;;;14.30;6.00;;;;;;;2.79;76.65;98190.75;105090;1259;97986;-68
2023/04/26 03:49:34;;;;;;;10.10;5.40;;;;;;;2.76;76.97;98189.98;105124;1257;99075;-71
2023/04/26 03:52:01;;;;;;;10.40;5.00;;;;;;;2.79;76.76;98191.56;105174;1267;97954;-68
2023/04/26 03:54:28;;;;;;;14.90;5.40;;;;;;;2.82;77.00;98194.96;104752;1258;108219;-69
2023/04/26 03:56:55;;;;;;;10.40;5.10;;;;;;;2.87;76.96;98193.02;105053;1259;97975;-70
2023/04/26 03:59:23;;;;;;;10.50;4.50;;;;;;;2.93;76.69;98199.01;105060;1259;97877;-69
2023/04/26 04:01:49;;;;;;;8.30;3.80;;;;;;;2.96;77.06;98202.73;105121;1267;99212;-71
2023/04/26 04:04:16;;;;;;;13.30;4.40;;;;;;;3.00;76.82;98201.20;105145;1257;97943;-68
2023/04/26 04:06:45;;;;;;;9.30;4.50;;;;;;;3.06;76.62;98202.70;105078;1265;97882;-71
2023/04/26 04:09:11;;;;;;;13.40;4.30;;;;;;;3.09;76.58;98206.98;105109;1259;97988;-69
2023/04/26 04:11:39;;;;;;;11.10;4.40;;;;;;;3.14;76.77;98207.23;104949;1263;97898;-69
2023/04/26 04:14:06;;;;;;;9.90;4.40;;;;;;;3.19;76.44;98205.04;105162;1259;97994;-69
2023/04/26 04:16:33;;;;;;;8.70;4.20;;;;;;;3.23;76.70;98206.55;105148;1263;97887;-69
2023/04/26 04:19:00;;;;;;;16.20;5.70;;;;;;;3.29;76.32;98212.80;105090;1257;97973;-69
2023/04/26 04:21:27;;;;;;;15.20;5.40;;;;;;;3.35;76.07;98213.92;105119;1256;99192;-69
2023/04/26 04:23:54;;;;;;;9.10;4.80;;;;;;;3.41;76.50;98214.71;105171;1266;97896;-69
2023/04/26 04:26:21;;;;;;;13.70;5.50;;;;;;;3.49;76.35;98218.58;105160;1254;97969;-69
2023/04/26 04:28:48;;;;;;;12.00;4.90;;;;;;;3.59;76.27;98220.64;105005;1267;108126;-69
2023/04/26 04:31:16;;;;;;;10.20;4.80;;;;;;;3.68;75.92;98223.09;104983;1264;97943;-69
2023/04/26 04:33:48;;;;;;;10.00;4.70;;;;;;;3.75;75.91;98221.54;105095;1256;99746;-69
2023/04/26 04:36:17;;;;;;;14.00;5.40;;;;;;;3.83;75.71;98222.59;105147;1266;111864;-68
2023/04/26 04:38:44;;;;;;;9.60;4.70;;;;;;;3.95;75.05;98221.48;105030;1260;99321;-68
2023/04/26 04:41:11;;;;;;;9.60;3.90;;;;;;;4.11;74.68;98227.89;105073;1267;97879;-68
2023/04/26 04:43:38;;;;;;;9.00;4.10;;;;;;;4.24;74.40;98230.24;105035;1260;98054;-67
2023/04/26 04:46:05;;;;;;;8.20;3.80;;;;;;;4.38;73.57;98229.65;105029;1266;97893;-67
2023/04/26 04:48:33;;;;;;;9.40;3.80;;;;;;;4.52;73.13;98229.70;105040;1267;99313;-68
2023/04/26 04:51:01;;;;;;;10.80;4.10;;;;;;;4.62;72.68;98233.26;105111;1266;97925;-67
2023/04/26 04:53:28;;;;;;;9.90;4.00;;;;;;;4.73;72.69;98234.80;105040;1259;97932;-68
2023/04/26 04:55:55;;;;;;;6.10;3.50;;;;;;;4.82;72.18;98232.65;105039;1266;99206;-68
2023/04/26 04:58:23;;;;;;;9.60;3.80;;;;;;;4.91;72.07;98236.85;105086;1257;97892;-68
2023/04/26 05:00:53;;;;;;;9.00;3.50;;;;;;;5.00;71.65;98235.58;105030;1260;97891;-68
2023/04/26 05:03:20;;;;;;;9.20;4.10;;;;;;;5.07;71.43;98231.42;105043;1259;99531;-68
2023/04/26 05:05:47;;;;;;;6.90;3.50;;;;;;;5.13;71.38;98233.42;105059;1257;108621;-68
2023/04/26 05:08:15;;;;;;;7.10;3.20;;;;;;;5.22;70.81;98232.13;105047;1259;99154;-68
2023/04/26 05:10:44;;;;;;;13.20;3.60;;;;;;;5.28;70.30;98240.65;105013;1255;99161;-69
2023/04/26 05:13:12;;;;;;;5.70;3.70;;;;;;;5.37;70.18;98240.49;105140;1267;112006;-69
2023/04/26 05:15:39;;;;;;;8.80;3.70;;;;;;;5.44;70.15;98245.84;105103;1255;97884;-68
2023/04/26 05:18:06;;;;;;;6.50;2.90;;;;;;;5.55;69.91;98244.53;104990;1267;97958;-69
2023/04/26 05:20:33;;;;;;;7.30;3.10;;;;;;;5.65;68.81;98243.66;105051;1257;98857;-68
2023/04/26 05:23:01;;;;;;;6.30;3.30;;;;;;;5.74;68.63;98250.05;105018;1267;97886;-70
2023/04/26 05:25:28;;;;;;;9.10;2.80;;;;;;;5.85;67.64;98248.77;105187;1267;97892;-69
2023/04/26 05:27:55;;;;;;;4.00;2.10;;;;;;;5.97;67.52;98253.14;105140;1267;97916;-69
2023/04/26 05:30:22;;;;;;;4.70;2.20;;;;;;;6.07;66.80;98253.95;105097;1259;97901;-68
2023/04/26 05:32:50;;;;;;;6.90;2.60;;;;;;;6.13;66.37;98255.81;105115;1258;97878;-67
2023/04/26 05:35:17;;;;;;;4.60;2.30;;;;;;;6.24;66.63;98257.63;105155;1257;97879;-68
2023/04/26 05:37:44;;;;;;;6.50;2.50;;;;;;;6.38;65.67;98260.64;105128;1267;97925;-68
2023/04/26 05:40:12;;;;;;;8.90;2.30;;;;;;;6.42;65.23;98261.27;105071;1268;99191;-68
2023/04/26 05:42:39;;;;;;;6.10;2.70;;;;;;;6.52;65.67;98263.83;105084;1259;97994;-68
2023/04/26 05:45:08;;;;;;;3.70;1.80;;;;;;;6.64;66.07;98263.66;105162;1259;98549;-67
2023/04/26 05:47:35;;;;;;;7.50;2.70;;;;;;;6.78;65.76;98268.32;105175;1256;97893;-67
2023/04/26 05:50:03;;;;;;;5.10;3.00;;;;;;;6.93;65.98;98267.76;105050;1266;99183;-67
2023/04/26 05:52:30;;;;;;;7.60;2.70;;;;;;;7.04;65.54;98271.37;105104;1259;99207;-68
2023/04/26 05:54:57;;;;;;;7.10;2.50;;;;;;;7.08;65.25;98270.88;105060;1269;99289;-67
2023/04/26 05:57:24;;;;;;;5.30;2.50;;;;;;;7.18;65.10;98272.48;105124;1265;97890;-67
2023/04/26 05:59:52;;;;;;;7.10;3.00;;;;;;;7.28;64.31;98271.39;105139;1259;97938;-68
2023/04/26 06:02:19;;;;;;;6.50;3.10;;;;;;;7.37;64.75;98271.91;105079;1267;97881;-68
2023/04/26 06:04:46;;;;;;;5.40;2.40;;;;;;;7.52;63.62;98275.08;105143;1260;97915;-67
2023/04/26 06:07:15;;;;;;;4.90;2.30;;;;;;;7.63;63.25;98275.55;105236;1254;99189;-69
2023/04/26 06:09:42;;;;;;;6.30;2.20;;;;;;;7.79;62.99;98285.34;104996;1254;99289;-69
2023/04/26 06:12:10;;;;;;;7.80;2.80;;;;;;;7.89;62.95;98291.30;105223;1265;97874;-68
2023/04/26 06:14:37;;;;;;;3.10;2.10;;;;;;;8.03;62.48;98297.50;105284;1267;97945;-67
2023/04/26 06:17:03;;;;;;;7.30;2.80;;;;;;;8.13;61.05;98299.91;105191;1257;98252;-68
2023/04/26 06:19:31;;;;;;;7.80;3.00;;;;;;;8.12;59.66;98301.73;105185;1266;98110;-68
2023/04/26 06:21:58;;;;;;;4.10;2.50;;;;;;;8.10;61.03;98307.23;105250;1264;97861;-68
2023/04/26 06:24:25;;;;;;;8.30;2.50;;;;;;;8.27;60.07;98309.17;105102;1266;98320;-67
2023/04/26 06:26:55;;;;;;;4.80;2.10;;;;;;;8.40;59.93;98306.00;105080;1257;98325;-67
2023/04/26 06:29:32;;;;;;;6.80;2.10;;;;;;;8.57;59.82;98299.67;104973;1266;99359;-67
2023/04/26 06:32:12;;;;;;;5.00;2.60;;;;;;;8.77;59.86;98301.06;105119;1254;109056;-68
2023/04/26 06:34:48;;;;;;;4.70;2.40;;;;;;;8.99;59.70;98298.56;105075;1267;97906;-67
2023/04/26 06:37:27;;;;;;;9.00;3.70;;;;;;;9.03;58.75;98298.79;105065;1258;98025;-67
2023/04/26 06:40:00;;;;;;;6.50;3.00;;;;;;;8.97;58.73;98296.04;104975;1266;111979;-68
2023/04/26 06:42:27;;;;;;;3.30;1.70;;;;;;;8.99;58.16;98295.50;104902;1264;99231;-69
2023/04/26 06:44:55;;;;;;;6.30;2.20;;;;;;;8.96;57.86;98291.21;105115;1257;106681;-70
2023/04/26 06:47:22;;;;;;;5.20;2.30;;;;;;;9.05;58.49;98295.35;104999;1269;98085;-67
2023/04/26 06:49:49;;;;;;;4.90;3.10;;;;;;;9.06;57.96;98290.63;105272;1257;97892;-68
2023/04/26 06:52:16;;;;;;;6.70;2.10;;;;;;;8.97;57.72;98295.88;105230;1258;99212;-67
2023/04/26 06:54:46;;;;;;;6.20;2.80;;;;;;;8.88;57.56;98296.37;105273;1257;100585;-67
2023/04/26 06:57:23;;;;;;;6.30;2.50;;;;;;;8.80;58.00;98299.86;104852;1261;108204;-68
2023/04/26 06:59:51;;;;;;;5.60;2.70;;;;;;;8.87;58.25;98298.90;104867;1267;290918;-67
2023/04/26 07:02:18;;;;;;;6.80;2.70;;;;;;;8.93;57.63;98304.46;105129;1267;98296;-68
2023/04/26 07:04:45;;;;;;;9.50;2.40;;;;;;;8.91;58.15;98305.65;105107;1267;97874;-68
2023/04/26 07:07:14;;;;;;;7.10;2.70;;;;;;;8.90;57.31;98306.77;104915;1260;98342;-68
2023/04/26 07:09:42;;;;;;;6.20;2.30;;;;;;;9.13;58.20;98303.30;105302;1262;108462;-68
2023/04/26 07:12:11;;;;;;;6.00;2.60;;;;;;;9.39;57.27;98304.29;105000;1270;98600;-68
2023/04/26 07:14:40;;;;;;;4.30;2.20;;;;;;;9.37;57.28;98310.71;105219;1257;98031;-66
2023/04/26 07:17:07;;;;;;;8.70;3.00;;;;;;;9.40;56.80;98314.25;105265;1257;112383;-68
2023/04/26 07:19:35;;;;;;;5.20;2.50;;;;;;;9.43;57.18;98316.95;105228;1264;99361;-68
2023/04/26 07:22:03;;;;;;;6.60;2.60;;;;;;;9.42;57.42;98318.17;105397;1256;99202;-66
2023/04/26 07:24:30;;;;;;;5.40;2.80;;;;;;;9.26;57.47;98319.16;105185;1257;99284;-67
2023/04/26 07:26:58;;;;;;;8.40;2.80;;;;;;;9.12;57.59;98323.23;105187;1256;99282;-67
2023/04/26 07:29:25;;;;;;;5.60;2.40;;;;;;;9.03;57.93;98326.83;105239;1267;98197;-66
2023/04/26 07:31:52;;;;;;;5.80;2.50;;;;;;;8.99;58.60;98323.98;105279;1267;97921;-67
2023/04/26 07:34:19;;;;;;;5.90;2.90;;;;;;;8.96;58.97;98323.89;105150;1275;97979;-67
2023/04/26 07:36:47;;;;;;;7.40;2.80;;;;;;;9.03;59.02;98325.40;105247;1257;97916;-67
2023/04/26 07:39:14;;;;;;;5.60;2.50;;;;;;;9.16;59.31;98321.81;105252;1257;99295;-67
2023/04/26 07:41:41;;;;;;;5.40;2.70;;;;;;;9.43;58.20;98318.86;105217;1259;98825;-67
2023/04/26 07:44:10;;;;;;;4.30;2.60;;;;;;;9.65;57.58;98317.52;105245;1266;97993;-67
2023/04/26 07:46:37;;;;;;;5.30;2.40;;;;;;;9.89;56.61;98320.42;105297;1265;107210;-67
2023/04/26 07:49:05;;;;;;;4.00;2.10;;;;;;;10.10;56.26;98320.48;105021;1268;98155;-68
2023/04/26 07:51:34;;;;;;;8.70;2.20;;;;;;;10.56;56.89;98316.71;105185;1254;98107;-68
2023/04/26 07:54:01;;;;;;;4.50;2.00;;;;;;;10.81;54.61;98321.05;105058;1256;111089;-67
2023/04/26 07:56:29;;;;;;;3.00;1.70;;;;;;;11.07;53.16;98316.91;104942;1264;99108;-67
2023/04/26 07:58:56;;;;;;;4.40;1.70;;;;;;;11.38;52.95;98315.45;105075;1264;99243;-68
2023/04/26 08:01:23;;;;;;;4.00;1.70;;;;;;;11.71;52.10;98319.78;105017;1258;97864;-66
2023/04/26 08:03:51;;;;;;;5.30;1.70;;;;;;;12.07;50.40;98323.63;105176;1267;97959;-72
2023/04/26 08:06:20;;;;;;;3.70;1.70;;;;;;;12.21;49.82;98320.02;105108;1258;112101;-68
2023/04/26 08:08:49;;;;;;;5.10;1.90;;;;;;;12.32;48.78;98321.86;105067;1270;98935;-68
2023/04/26 08:11:17;;;;;;;4.20;1.70;;;;;;;12.38;47.49;98322.48;105292;1267;108305;-67
2023/04/26 08:13:44;;;;;;;5.00;1.50;;;;;;;12.14;47.80;98325.95;105267;1267;98594;-67
2023/04/26 08:16:11;;;;;;;2.00;1.40;;;;;;;11.99;48.48;98326.98;105287;1260;99141;-67
2023/04/26 08:18:39;;;;;;;4.30;1.90;;;;;;;12.19;48.84;98328.44;105298;1256;97880;-67
2023/04/26 08:21:06;;;;;;;3.50;1.90;;;;;;;12.52;48.24;98324.71;105252;1256;97877;-66
2023/04/26 08:23:35;;;;;;;3.20;1.80;;;;;;;12.66;47.53;98327.11;105249;1267;97957;-66
2023/04/26 08:26:03;;;;;;;4.90;1.80;;;;;;;12.45;47.44;98329.73;105189;1267;97899;-66
2023/04/26 08:28:30;;;;;;;6.20;1.90;;;;;;;12.30;48.40;98330.27;105031;1267;98822;-66
2023/04/26 08:30:57;;;;;;;3.20;2.00;;;;;;;12.43;48.36;98329.10;105181;1257;99106;-66
2023/04/26 08:33:25;;;;;;;5.60;1.80;;;;;;;12.55;47.83;98328.75;105318;1257;99207;-67
2023/04/26 08:35:52;;;;;;;3.70;1.80;;;;;;;12.47;46.74;98332.00;105276;1255;97975;-67
2023/04/26 08:38:21;;;;;;;4.60;1.50;;;;;;;12.29;46.13;98331.30;105169;1261;99654;-67
2023/04/26 08:40:50;;;;;;;3.80;1.60;;;;;;;11.91;45.84;98339.55;105321;1254;99154;-66
2023/04/26 08:43:17;;;;;;;3.70;1.30;;;;;;;11.62;46.58;98334.70;105281;1254;111650;-65
2023/04/26 08:45:46;;;;;;;2.40;1.30;;;;;;;11.97;47.86;98337.30;105251;1257;97896;-66
2023/04/26 08:48:14;;;;;;;4.80;1.70;;;;;;;12.56;47.11;98333.50;105287;1254;107529;-67
2023/04/26 08:50:46;;;;;;;3.20;1.30;;;;;;;13.12;45.39;98329.67;105305;1270;99044;-66
2023/04/26 08:53:16;;;;;;;4.40;1.60;;;;;;;13.14;44.12;98334.41;105213;1258;97982;-66
2023/04/26 08:55:48;;;;;;;3.20;1.40;;;;;;;12.98;43.58;98335.48;105140;1267;112446;-66
2023/04/26 08:58:17;;;;;;;2.80;1.10;;;;;;;13.09;44.02;98331.23;104958;1269;98211;-67
2023/04/26 09:00:45;;;;;;;6.30;1.80;;;;;;;13.38;44.81;98322.27;105098;1254;108607;-67
2023/04/26 09:03:13;;;;;;;5.60;2.70;;;;;;;13.75;44.39;98316.95;105198;1258;97966;-67
2023/04/26 09:05:44;;;;;;;4.40;1.20;;;;;;;14.04;43.14;98319.60;105224;1260;99430;-67
2023/04/26 09:08:18;;;;;;;3.00;1.30;;;;;;;14.23;43.22;98325.06;104962;1261;111420;-67
2023/04/26 09:10:46;;;;;;;3.10;1.20;;;;;;;14.09;40.43;98331.45;105245;1267;98796;-67
2023/04/26 09:13:13;;;;;;;3.40;1.30;;;;;;;13.57;40.51;98336.57;105102;1267;108116;-67
2023/04/26 09:15:41;;;;;;;3.70;0.90;;;;;;;13.11;41.61;98349.55;105252;1254;97992;-65
2023/04/26 09:18:23;;;;;;;2.80;1.20;;;;;;;12.65;43.25;98347.72;105009;1257;97900;-66
2023/04/26 09:21:05;;;;;;;3.10;1.40;;;;;;;12.26;45.33;98351.94;105225;1259;112233;-67
2023/04/26 09:23:33;;;;;;;3.10;1.90;;;;;;;11.81;45.23;98356.33;104873;1269;98232;-68
2023/04/26 09:26:20;;;;;;;2.50;1.10;;;;;;;11.55;45.83;98356.39;105186;1260;107598;-68
2023/04/26 09:28:49;;;;;;;3.20;1.50;;;;;;;11.47;45.95;98356.67;104921;1270;99218;-72
2023/04/26 09:31:42;;;;;;;3.00;1.40;;;;;;;11.46;45.09;98356.77;105303;1255;98220;-67
2023/04/26 09:34:11;;;;;;;2.90;1.50;;;;;;;11.27;45.01;98356.62;105184;1267;110835;-69
2023/04/26 09:36:52;;;;;;;4.80;1.80;;;;;;;10.99;45.53;98357.77;105006;1262;99532;-68
2023/04/26 09:39:32;;;;;;;5.10;2.70;;;;;;;11.01;47.29;98359.63;105004;1259;107736;-68
2023/04/26 09:42:00;;;;;;;3.60;1.30;;;;;;;11.77;47.18;98359.78;105240;1275;97959;-66
2023/04/26 09:44:30;;;;;;;4.20;1.30;;;;;;;12.44;46.17;98350.33;105255;1267;99158;-66
2023/04/26 09:46:58;;;;;;;3.90;1.90;;;;;;;12.60;43.54;98344.17;105266;1254;112184;-67
2023/04/26 09:49:30;;;;;;;3.40;1.50;;;;;;;12.43;44.25;98346.85;105312;1267;99226;-67
2023/04/26 09:52:05;;;;;;;3.00;1.30;;;;;;;12.38;44.38;98347.11;105044;1258;107170;-67
2023/04/26 09:54:46;;;;;;;2.50;1.50;;;;;;;12.16;44.32;98352.24;105312;1267;97871;-67
2023/04/26 09:57:16;;;;;;;2.40;1.20;;;;;;;11.95;44.43;98350.77;105267;1257;97909;-67
2023/04/26 09:59:48;;;;;;;3.60;0.90;;;;;;;11.84;44.61;98346.89;105139;1257;111281;-68
2023/04/26 10:02:25;;;;;;;2.50;1.30;;;;;;;11.98;44.36;98349.40;105194;1256;99265;-68
2023/04/26 10:04:55;;;;;;;3.90;1.70;;;;;;;12.56;44.41;98346.08;105250;1258;108527;-68
2023/04/26 10:07:25;;;;;;;2.40;1.00;;;;;;;12.98;41.50;98345.56;105048;1270;97949;-68
2023/04/26 10:09:52;;;;;;;3.00;1.00;;;;;;;12.88;41.15;98339.67;105028;1260;99615;-67
2023/04/26 10:12:19;;;;;;;3.20;1.00;;;;;;;12.73;40.86;98335.78;104986;1269;111818;-68
2023/04/26 10:14:47;;;;;;;2.70;1.90;;;;;;;12.17;40.32;98334.95;105247;1267;99319;-67
2023/04/26 10:17:17;;;;;;;4.60;1.60;;;;;;;11.97;41.94;98341.20;105159;1266;108172;-66
2023/04/26 10:19:48;;;;;;;1.80;1.00;;;;;;;11.93;40.75;98340.02;105512;1256;99214;-66
2023/04/26 10:22:30;;;;;;;2.80;1.70;;;;;;;11.78;41.31;98345.61;105253;1257;97894;-66
2023/04/26 10:24:57;;;;;;;1.90;1.30;;;;;;;11.68;41.22;98343.50;105061;1270;111305;-66
2023/04/26 10:27:43;;;;;;;3.00;1.50;;;;;;;11.79;40.56;98344.48;105173;1267;99460;-67
2023/04/26 10:30:15;;;;;;;2.40;0.80;;;;;;;11.93;40.31;98344.95;105217;1265;108529;-67
2023/04/26 10:32:54;;;;;;;2.80;1.00;;;;;;;11.86;40.43;98345.61;104907;1262;98072;-67
2023/04/26 10:36:06;;;;;;;4.00;1.20;;;;;;;11.61;40.97;98347.42;105261;1257;99025;-67
2023/04/26 10:38:36;;;;;;;2.70;1.00;;;;;;;11.46;41.92;98346.13;105246;1258;112236;-67
2023/04/26 10:41:33;;;;;;;1.70;1.00;;;;;;;11.40;42.02;98353.70;105058;1257;98412;-67
2023/04/26 10:44:36;;;;;;;1.40;0.90;;;;;;;11.29;41.73;98355.14;105122;1266;108466;-67
2023/04/26 10:47:06;;;;;;;1.80;0.80;;;;;;;11.44;40.76;98354.26;105123;1256;99188;-68
2023/04/26 10:49:45;;;;;;;2.60;1.00;;;;;;;11.61;40.27;98353.79;105242;1259;97892;-69
2023/04/26 10:52:22;;;;;;;3.80;0.90;;;;;;;11.62;40.23;98352.00;104982;1271;111200;-67
2023/04/26 10:54:52;;;;;;;5.30;1.30;;;;;;;11.48;40.77;98354.44;105182;1256;99216;-67
2023/04/26 10:57:21;;;;;;;2.70;1.00;;;;;;;11.18;41.64;98351.61;105241;1256;108588;-68
2023/04/26 11:00:09;;;;;;;6.10;1.20;;;;;;;11.12;42.06;98355.59;105221;1258;97897;-68
2023/04/26 11:03:03;;;;;;;4.10;1.10;;;;;;;11.21;42.21;98352.52;105057;1260;99078;-66
2023/04/26 11:05:46;;;;;;;2.50;1.10;;;;;;;11.40;41.93;98351.85;105205;1257;112178;-66
2023/04/26 11:08:13;;;;;;;4.10;1.30;;;;;;;11.83;41.88;98351.22;105158;1253;98602;-66
2023/04/26 11:10:41;;;;;;;2.60;1.00;;;;;;;11.90;41.45;98346.11;105214;1254;99057;-66
2023/04/26 11:13:08;;;;;;;3.00;1.10;;;;;;;11.72;40.39;98343.73;105132;1260;99189;-66
2023/04/26 11:15:35;;;;;;;3.10;1.00;;;;;;;11.65;40.94;98346.35;105167;1256;97870;-67
2023/04/26 11:18:04;;;;;;;5.30;1.40;;;;;;;11.42;40.76;98345.27;105106;1263;98006;-66
2023/04/26 11:20:32;;;;;;;1.40;0.90;;;;;;;11.43;40.68;98342.22;105292;1259;99135;-66
2023/04/26 11:23:00;;;;;;;2.10;1.30;;;;;;;11.91;40.09;98335.71;105257;1267;108052;-66
2023/04/26 11:25:28;;;;;;;5.60;1.20;;;;;;;12.56;38.41;98338.22;105220;1268;97903;-66
2023/04/26 11:27:57;;;;;;;1.80;0.80;;;;;;;13.13;39.01;98333.98;104833;1260;98868;-65
2023/04/26 11:30:26;;;;;;;2.90;1.10;;;;;;;13.61;37.92;98327.84;105225;1256;112483;-66
2023/04/26 11:32:53;;;;;;;1.50;0.70;;;;;;;13.66;36.50;98333.49;105088;1268;99030;-67
2023/04/26 11:35:22;;;;;;;2.10;1.20;;;;;;;13.88;36.18;98330.19;105107;1256;98611;-67
2023/04/26 11:37:52;;;;;;;2.10;0.70;;;;;;;14.34;35.99;98330.12;105209;1258;97884;-66